createdAt,value
2018-12-14T00:02:31.602Z,89.70
2018-12-14T00:05:06.361Z,89.60
2018-12-14T00:07:40.992Z,89.40
2018-12-14T00:10:15.791Z,89.20
2018-12-14T00:12:51.695Z,89.90
2018-12-14T00:15:26.452Z,88.70
2018-12-14T00:18:01.272Z,88.40
2018-12-14T00:20:38.219Z,87.90
2018-12-14T00:25:56.945Z,87.70
2018-12-14T00:28:31.984Z,87.70
2018-12-14T00:31:06.953Z,88.10
2018-12-14T00:33:42.719Z,88.20
2018-12-14T00:39:03.126Z,88.40
2018-12-14T00:41:39.105Z,88.60
2018-12-14T00:44:14.139Z,88.90
2018-12-14T00:49:38.048Z,88.70
2018-12-14T00:52:13.026Z,88.40
2018-12-14T00:54:51.642Z,89.10
2018-12-14T00:57:26.693Z,88.70
2018-12-14T01:00:01.649Z,88.40
2018-12-14T01:02:36.702Z,88.40
2018-12-14T01:05:11.700Z,88.90
2018-12-14T01:07:46.226Z,89.00
2018-12-14T01:10:21.219Z,89.40
2018-12-14T01:12:55.923Z,89.10
2018-12-14T01:15:30.692Z,88.90
2018-12-14T01:18:05.283Z,88.70
2018-12-14T01:20:40.067Z,89.20
2018-12-14T01:23:15.188Z,89.00
2018-12-14T01:25:49.979Z,89.40
2018-12-14T01:28:24.865Z,89.20
2018-12-14T01:30:59.933Z,89.40
2018-12-14T01:33:34.885Z,89.70
2018-12-14T01:36:09.517Z,89.70
2018-12-14T01:38:44.381Z,89.90
2018-12-14T01:41:19.516Z,90.10
2018-12-14T01:43:54.360Z,90.00
2018-12-14T01:46:28.808Z,90.00
2018-12-14T01:49:03.536Z,90.10
2018-12-14T01:51:38.560Z,90.10
2018-12-14T01:54:13.655Z,90.60
2018-12-14T01:56:48.538Z,90.20
2018-12-14T01:59:23.076Z,90.20
2018-12-14T02:01:57.930Z,90.20
2018-12-14T02:04:32.690Z,90.10
2018-12-14T02:07:07.433Z,90.00
2018-12-14T02:09:42.143Z,90.00
2018-12-14T02:12:17.051Z,89.90
2018-12-14T02:14:51.651Z,89.80
2018-12-14T02:17:26.347Z,90.00
2018-12-14T02:20:01.198Z,90.10
2018-12-14T02:22:36.257Z,90.00
2018-12-14T02:25:11.089Z,89.90
2018-12-14T02:27:45.855Z,89.90
2018-12-14T02:30:44.172Z,89.60
2018-12-14T02:33:18.845Z,89.20
2018-12-14T02:35:53.759Z,89.20
2018-12-14T02:38:28.509Z,89.50
2018-12-14T02:41:03.644Z,89.10
2018-12-14T02:43:38.453Z,88.80
2018-12-14T02:46:13.240Z,88.70
2018-12-14T02:48:47.943Z,88.60
2018-12-14T02:51:22.867Z,88.40
2018-12-14T02:53:57.566Z,88.40
2018-12-14T02:56:32.132Z,88.60
2018-12-14T02:59:06.728Z,89.60
2018-12-14T03:01:41.474Z,89.40
2018-12-14T03:04:16.394Z,89.20
2018-12-14T03:06:51.262Z,88.90
2018-12-14T03:09:25.829Z,88.30
2018-12-14T03:12:00.483Z,88.50
2018-12-14T03:14:35.019Z,88.50
2018-12-14T03:17:09.976Z,88.80
2018-12-14T03:19:44.846Z,89.10
2018-12-14T03:22:20.193Z,89.40
2018-12-14T03:24:54.944Z,89.60
2018-12-14T03:27:29.625Z,89.40
2018-12-14T03:30:04.979Z,89.60
2018-12-14T03:32:39.988Z,89.80
2018-12-14T03:35:14.730Z,90.10
2018-12-14T03:37:49.291Z,90.00
2018-12-14T03:40:24.197Z,90.10
2018-12-14T03:42:58.759Z,90.00
2018-12-14T03:45:33.610Z,90.00
2018-12-14T03:48:08.607Z,90.00
2018-12-14T03:50:43.287Z,90.10
2018-12-14T03:53:18.181Z,90.20
2018-12-14T03:55:52.808Z,89.90
2018-12-14T03:58:27.554Z,89.20
2018-12-14T04:01:02.428Z,88.80
2018-12-14T04:03:37.243Z,88.90
2018-12-14T04:06:12.109Z,88.90
2018-12-14T04:08:47.130Z,89.30
2018-12-14T04:11:22.101Z,88.90
2018-12-14T04:13:56.893Z,88.70
2018-12-14T04:16:31.641Z,88.60
2018-12-14T04:19:06.447Z,88.80
2018-12-14T04:21:41.305Z,88.30
2018-12-14T04:24:16.336Z,89.10
2018-12-14T04:26:51.055Z,89.50
2018-12-14T04:29:25.882Z,89.80
2018-12-14T04:32:00.552Z,90.00
2018-12-14T04:34:35.341Z,90.00
2018-12-14T04:37:10.433Z,90.00
2018-12-14T04:39:45.285Z,90.00
2018-12-14T04:42:19.772Z,89.50
2018-12-14T04:44:54.470Z,89.40
2018-12-14T04:47:29.531Z,89.50
2018-12-14T04:52:47.745Z,89.80
2018-12-14T04:55:23.978Z,89.90
2018-12-14T04:57:58.810Z,90.30
2018-12-14T05:00:34.806Z,90.40
2018-12-14T05:03:14.223Z,90.50
2018-12-14T05:05:49.525Z,90.40
2018-12-14T05:08:24.834Z,90.20
2018-12-14T05:10:59.777Z,90.40
2018-12-14T05:13:35.482Z,90.50
2018-12-14T05:19:00.767Z,90.80
2018-12-14T05:21:35.597Z,91.00
2018-12-14T05:24:10.099Z,91.20
2018-12-14T05:26:46.058Z,91.40
2018-12-14T05:29:20.916Z,91.30
2018-12-14T05:31:55.746Z,91.30
2018-12-14T05:34:30.923Z,91.40
2018-12-14T05:37:07.554Z,91.30
2018-12-14T05:39:45.253Z,91.20
2018-12-14T05:42:21.328Z,91.30
2018-12-14T05:44:57.443Z,91.40
2018-12-14T05:47:32.836Z,91.30
2018-12-14T05:50:10.552Z,91.30
2018-12-14T05:52:46.473Z,91.30
2018-12-14T05:55:28.122Z,91.20
2018-12-14T05:58:05.461Z,91.20
2018-12-14T06:00:40.419Z,91.10
2018-12-14T06:03:15.941Z,91.10
2018-12-14T06:08:35.608Z,91.70
2018-12-14T06:11:15.413Z,91.30
2018-12-14T06:13:55.582Z,91.40
2018-12-14T06:16:34.178Z,91.60
2018-12-14T06:19:10.555Z,91.50
2018-12-14T06:21:45.319Z,91.50
2018-12-14T06:24:21.901Z,91.50
2018-12-14T06:26:57.466Z,91.40
2018-12-14T06:29:33.589Z,91.30
2018-12-14T06:34:53.652Z,91.10
2018-12-14T06:40:15.376Z,90.80
2018-12-14T06:42:51.492Z,90.70
2018-12-14T06:45:27.693Z,90.70
2018-12-14T06:48:02.710Z,90.70
2018-12-14T06:50:37.949Z,90.60
2018-12-14T06:53:13.153Z,90.70
2018-12-14T06:58:34.497Z,90.60
2018-12-14T07:01:10.811Z,90.60
2018-12-14T07:03:48.397Z,90.60
2018-12-14T07:06:25.116Z,90.80
2018-12-14T07:09:00.381Z,90.90
2018-12-14T07:11:37.498Z,91.00
2018-12-14T07:14:12.963Z,90.90
2018-12-14T07:16:48.631Z,90.80
2018-12-14T07:19:24.100Z,90.70
2018-12-14T07:21:59.355Z,90.70
2018-12-14T07:24:35.596Z,90.70
2018-12-14T07:27:11.943Z,90.70
2018-12-14T07:29:47.362Z,90.70
2018-12-14T07:32:22.382Z,90.70
2018-12-14T07:34:57.109Z,90.80
2018-12-14T07:40:16.201Z,90.80
2018-12-14T07:42:50.959Z,90.70
2018-12-14T07:45:25.689Z,90.70
2018-12-14T07:48:00.297Z,90.70
2018-12-14T07:50:35.471Z,90.60
2018-12-14T07:53:10.611Z,90.20
2018-12-14T07:55:45.273Z,90.20
2018-12-14T07:58:20.322Z,90.10
2018-12-14T08:00:54.933Z,90.00
2018-12-14T08:03:29.547Z,90.00
2018-12-14T08:06:04.377Z,89.80
2018-12-14T08:08:39.161Z,89.60
2018-12-14T08:11:14.101Z,89.40
2018-12-14T08:13:48.821Z,89.20
2018-12-14T08:16:23.516Z,89.20
2018-12-14T08:18:58.432Z,88.90
2018-12-14T08:21:33.561Z,88.00
2018-12-14T08:24:08.354Z,88.30
2018-12-14T08:26:43.089Z,88.10
2018-12-14T08:29:17.765Z,87.70
2018-12-14T08:31:52.490Z,87.80
2018-12-14T08:34:27.328Z,87.50
2018-12-14T08:37:02.115Z,87.00
2018-12-14T08:39:37.018Z,87.00
2018-12-14T08:42:12.139Z,87.10
2018-12-14T08:44:46.667Z,87.20
2018-12-14T08:47:21.333Z,86.70
2018-12-14T08:49:56.179Z,86.20
2018-12-14T08:52:30.886Z,86.30
2018-12-14T08:55:05.724Z,85.50
2018-12-14T08:57:40.378Z,85.60
2018-12-14T09:00:15.159Z,84.80
2018-12-14T09:02:50.079Z,83.20
2018-12-14T09:05:24.874Z,83.30
2018-12-14T09:07:59.651Z,82.40
2018-12-14T09:10:34.458Z,84.20
2018-12-14T09:13:09.387Z,83.70
2018-12-14T09:15:45.413Z,83.60
2018-12-14T09:18:20.386Z,83.50
2018-12-14T09:21:00.899Z,82.20
2018-12-14T09:23:32.160Z,82.90
2018-12-14T09:26:07.135Z,82.60
2018-12-14T09:28:42.477Z,82.20
2018-12-14T09:31:18.435Z,83.00
2018-12-14T09:33:53.232Z,81.90
2018-12-14T09:36:28.389Z,82.20
2018-12-14T09:39:04.756Z,81.10
2018-12-14T09:41:39.599Z,82.30
2018-12-14T09:44:14.429Z,81.20
2018-12-14T09:46:49.418Z,81.60
2018-12-14T09:49:24.510Z,80.60
2018-12-14T09:51:59.341Z,80.70
2018-12-14T09:54:34.215Z,80.50
2018-12-14T09:57:09.207Z,80.80
2018-12-14T09:59:44.197Z,80.90
2018-12-14T10:02:19.039Z,80.20
2018-12-14T10:04:53.921Z,80.50
2018-12-14T10:10:14.227Z,79.00
2018-12-14T10:12:49.407Z,79.40
2018-12-14T10:15:24.562Z,79.00
2018-12-14T10:17:59.718Z,78.80
2018-12-14T10:20:35.034Z,79.00
2018-12-14T10:23:11.267Z,79.40
2018-12-14T10:25:46.235Z,79.70
2018-12-14T10:28:21.486Z,79.70
2018-12-14T10:30:56.248Z,78.80
2018-12-14T10:33:31.044Z,79.40
2018-12-14T10:36:06.092Z,79.10
2018-12-14T10:38:40.825Z,78.00
2018-12-14T10:41:15.975Z,77.80
2018-12-14T10:43:51.239Z,78.70
2018-12-14T10:46:25.966Z,78.50
2018-12-14T10:49:00.894Z,79.40
2018-12-14T10:51:36.051Z,78.60
2018-12-14T10:54:11.939Z,78.30
2018-12-14T10:56:47.173Z,79.00
2018-12-14T10:59:22.038Z,79.70
2018-12-14T11:01:57.117Z,77.60
2018-12-14T11:04:33.125Z,77.90
2018-12-14T11:07:08.399Z,77.20
2018-12-14T11:09:44.481Z,77.60
2018-12-14T11:12:19.563Z,78.90
2018-12-14T11:14:54.362Z,77.90
2018-12-14T11:17:29.445Z,79.00
2018-12-14T11:20:04.915Z,78.60
2018-12-14T11:22:39.779Z,77.60
2018-12-14T11:25:15.159Z,77.60
2018-12-14T11:27:51.019Z,75.90
2018-12-14T11:30:25.889Z,76.50
2018-12-14T11:33:01.259Z,76.30
2018-12-14T11:35:36.369Z,77.00
2018-12-14T11:38:11.512Z,75.90
2018-12-14T11:40:46.495Z,75.40
2018-12-14T11:43:21.588Z,74.60
2018-12-14T11:45:56.465Z,75.20
2018-12-14T11:48:31.277Z,75.50
2018-12-14T11:51:06.765Z,76.60
2018-12-14T11:53:41.760Z,75.20
2018-12-14T11:56:17.031Z,74.80
2018-12-14T11:58:51.932Z,73.90
2018-12-14T12:01:27.237Z,74.40
2018-12-14T12:04:02.117Z,75.70
2018-12-14T12:06:37.443Z,75.80
2018-12-14T12:09:13.032Z,75.50
2018-12-14T12:11:48.138Z,75.40
2018-12-14T12:14:26.960Z,75.40
2018-12-14T12:16:59.977Z,75.90
2018-12-14T12:19:34.800Z,76.40
2018-12-14T12:22:09.688Z,77.20
2018-12-14T12:24:44.766Z,77.00
2018-12-14T12:27:22.382Z,76.80
2018-12-14T12:29:57.970Z,76.90
2018-12-14T12:32:32.859Z,77.30
2018-12-14T12:35:08.166Z,77.20
2018-12-14T12:37:43.431Z,76.80
2018-12-14T12:40:18.111Z,77.50
2018-12-14T12:42:52.628Z,76.90
2018-12-14T12:45:28.676Z,77.10
2018-12-14T12:48:04.878Z,76.80
2018-12-14T12:50:39.568Z,77.10
2018-12-14T12:53:16.281Z,77.60
2018-12-14T12:55:51.207Z,77.00
2018-12-14T12:58:26.064Z,77.10
2018-12-14T13:01:00.811Z,77.30
2018-12-14T13:03:35.645Z,77.20
2018-12-14T13:06:10.187Z,77.30
2018-12-14T13:08:45.022Z,77.20
2018-12-14T13:11:20.309Z,76.90
2018-12-14T13:13:55.269Z,77.00
2018-12-14T13:16:30.316Z,76.90
2018-12-14T13:19:05.437Z,77.40
2018-12-14T13:21:40.309Z,77.50
2018-12-14T13:24:15.020Z,77.40
2018-12-14T13:26:49.877Z,77.20
2018-12-14T13:29:24.698Z,77.00
2018-12-14T13:31:59.569Z,76.90
2018-12-14T13:34:35.805Z,76.40
2018-12-14T13:37:10.988Z,75.90
2018-12-14T13:39:46.364Z,76.60
2018-12-14T13:42:22.071Z,76.50
2018-12-14T13:44:57.459Z,76.40
2018-12-14T13:47:32.709Z,76.70
2018-12-14T13:50:07.908Z,76.30
2018-12-14T13:52:43.007Z,76.60
2018-12-14T13:55:18.015Z,76.80
2018-12-14T13:57:53.054Z,76.90
2018-12-14T14:00:28.478Z,77.30
2018-12-14T14:03:03.669Z,77.30
2018-12-14T14:05:38.613Z,77.30
2018-12-14T14:08:13.489Z,77.50
2018-12-14T14:10:48.462Z,77.50
2018-12-14T14:13:23.264Z,77.10
2018-12-14T14:15:58.307Z,77.70
2018-12-14T14:18:33.541Z,77.20
2018-12-14T14:21:08.597Z,77.50
2018-12-14T14:23:43.569Z,77.50
2018-12-14T14:26:18.687Z,78.30
2018-12-14T14:28:56.127Z,78.40
2018-12-14T14:31:35.056Z,77.70
2018-12-14T14:34:09.651Z,78.20
2018-12-14T14:36:47.719Z,78.20
2018-12-14T14:39:23.499Z,77.80
2018-12-14T14:41:58.825Z,78.00
2018-12-14T14:44:33.611Z,77.60
2018-12-14T14:47:08.519Z,78.10
2018-12-14T14:49:43.375Z,78.00
2018-12-14T14:52:18.430Z,78.50
2018-12-14T14:54:53.503Z,78.60
2018-12-14T14:57:29.155Z,79.10
2018-12-14T15:00:05.410Z,78.80
2018-12-14T15:02:40.262Z,79.00
2018-12-14T15:05:15.191Z,79.10
2018-12-14T15:07:49.946Z,79.20
2018-12-14T15:10:24.838Z,78.80
2018-12-14T15:12:59.875Z,78.90
2018-12-14T15:15:34.507Z,79.10
2018-12-14T15:18:09.309Z,79.20
2018-12-14T15:20:44.147Z,79.00
2018-12-14T15:23:19.001Z,79.50
2018-12-14T15:25:53.877Z,79.50
2018-12-14T15:28:28.876Z,79.60
2018-12-14T15:31:03.803Z,79.60
2018-12-14T15:33:38.636Z,79.60
2018-12-14T15:36:13.327Z,79.90
2018-12-14T15:38:48.167Z,80.00
2018-12-14T15:41:22.817Z,80.00
2018-12-14T15:43:57.455Z,80.00
2018-12-14T15:46:32.119Z,80.20
2018-12-14T15:49:07.597Z,80.40
2018-12-14T15:51:42.185Z,80.00
2018-12-14T15:54:16.896Z,79.80
2018-12-14T15:56:51.935Z,79.80
2018-12-14T15:59:26.782Z,79.80
2018-12-14T16:02:01.756Z,79.80
2018-12-14T16:04:36.430Z,79.70
2018-12-14T16:07:11.288Z,79.90
2018-12-14T16:09:46.209Z,80.50
2018-12-14T16:12:21.129Z,80.00
2018-12-14T16:14:55.939Z,80.10
2018-12-14T16:17:30.845Z,80.30
2018-12-14T16:20:07.207Z,80.30
2018-12-14T16:22:42.041Z,79.70
2018-12-14T16:25:16.985Z,79.90
2018-12-14T16:27:51.926Z,80.30
2018-12-14T16:30:26.783Z,79.70
2018-12-14T16:33:01.510Z,79.50
2018-12-14T16:35:36.323Z,79.70
2018-12-14T16:38:11.274Z,79.80
2018-12-14T16:40:46.120Z,79.40
2018-12-14T16:43:20.942Z,79.40
2018-12-14T16:45:55.529Z,79.50
2018-12-14T16:48:30.413Z,79.70
2018-12-14T16:51:05.601Z,79.70
2018-12-14T16:53:45.488Z,79.10
2018-12-14T16:56:19.913Z,79.40
2018-12-14T16:58:54.765Z,79.30
2018-12-14T17:01:29.244Z,79.70
2018-12-14T17:04:04.748Z,80.10
2018-12-14T17:06:39.159Z,79.60
2018-12-14T17:09:13.632Z,79.30
2018-12-14T17:11:48.344Z,79.40
2018-12-14T17:14:23.117Z,79.80
2018-12-14T17:16:57.595Z,80.20
2018-12-14T17:19:31.980Z,79.90
2018-12-14T17:22:06.429Z,79.90
2018-12-14T17:24:41.152Z,80.00
2018-12-14T17:27:15.753Z,80.20
2018-12-14T17:29:50.364Z,79.80
2018-12-14T17:32:25.002Z,80.30
2018-12-14T17:34:59.700Z,80.30
2018-12-14T17:37:34.218Z,80.10
2018-12-14T17:40:08.887Z,79.80
2018-12-14T17:42:43.556Z,80.30
2018-12-14T17:45:17.973Z,80.30
2018-12-14T17:47:52.425Z,80.20
2018-12-14T17:50:27.053Z,80.50
2018-12-14T17:53:01.627Z,80.70
2018-12-14T17:55:36.092Z,81.70
2018-12-14T17:58:10.691Z,80.80
2018-12-14T18:00:45.000Z,80.80
2018-12-14T18:03:19.594Z,80.50
2018-12-14T18:05:54.061Z,80.50
2018-12-14T18:08:28.500Z,80.30
2018-12-14T18:11:03.093Z,80.40
2018-12-14T18:13:37.621Z,80.50
2018-12-14T18:16:12.114Z,80.00
2018-12-14T18:18:46.923Z,80.30
2018-12-14T18:21:21.663Z,80.70
2018-12-14T18:23:56.151Z,81.20
2018-12-14T18:26:30.551Z,81.60
2018-12-14T18:29:05.012Z,81.80
2018-12-14T18:31:39.470Z,81.40
2018-12-14T18:34:14.252Z,81.80
2018-12-14T18:36:52.589Z,81.60
2018-12-14T18:39:27.302Z,82.00
2018-12-14T18:42:01.748Z,81.30
2018-12-14T18:44:36.393Z,80.70
2018-12-14T18:47:10.957Z,79.70
2018-12-14T18:49:45.602Z,80.20
2018-12-14T18:52:20.116Z,80.40
2018-12-14T18:54:54.452Z,80.10
2018-12-14T18:57:28.864Z,80.40
2018-12-14T19:00:03.988Z,80.40
2018-12-14T19:02:38.449Z,79.90
2018-12-14T19:05:13.174Z,78.90
2018-12-14T19:07:47.760Z,79.60
2018-12-14T19:10:22.063Z,81.40
2018-12-14T19:12:56.527Z,82.20
2018-12-14T19:15:31.368Z,82.20
2018-12-14T19:18:05.806Z,82.20
2018-12-14T19:20:40.150Z,82.30
2018-12-14T19:23:19.543Z,82.60
2018-12-14T19:25:51.290Z,82.60
2018-12-14T19:28:26.947Z,82.80
2018-12-14T19:31:02.335Z,82.70
2018-12-14T19:33:36.950Z,82.70
2018-12-14T19:36:11.630Z,82.90
2018-12-14T19:38:46.199Z,82.90
2018-12-14T19:41:21.747Z,83.00
2018-12-14T19:43:56.141Z,82.90
2018-12-14T19:46:30.837Z,83.30
2018-12-14T19:49:05.400Z,83.20
2018-12-14T19:51:39.879Z,83.30
2018-12-14T19:54:14.945Z,84.40
2018-12-14T19:56:50.055Z,83.30
2018-12-14T19:59:24.788Z,83.30
2018-12-14T20:01:59.366Z,83.50
2018-12-14T20:04:33.932Z,83.30
2018-12-14T20:08:38.238Z,83.60
2018-12-14T20:11:12.815Z,83.30
2018-12-14T20:13:47.391Z,83.40
2018-12-14T20:16:22.102Z,83.20
2018-12-14T20:18:56.510Z,83.60
2018-12-14T20:21:31.065Z,84.10
2018-12-14T20:24:05.797Z,84.00
2018-12-14T20:26:40.263Z,83.60
2018-12-14T20:29:14.880Z,83.50
2018-12-14T20:31:49.520Z,83.60
2018-12-14T20:34:25.476Z,83.60
2018-12-14T20:37:00.964Z,83.40
2018-12-14T20:39:35.612Z,83.60
2018-12-14T20:42:10.387Z,83.60
2018-12-14T20:44:44.931Z,83.60
2018-12-14T20:47:19.313Z,83.60
2018-12-14T20:49:53.740Z,83.60
2018-12-14T20:52:28.383Z,84.00
2018-12-14T20:55:02.974Z,83.90
2018-12-14T20:57:37.505Z,83.40
2018-12-14T21:00:13.125Z,84.10
2018-12-14T21:02:47.676Z,83.90
2018-12-14T21:05:22.251Z,83.40
2018-12-14T21:07:56.667Z,83.40
2018-12-14T21:10:31.173Z,83.50
2018-12-14T21:13:05.800Z,83.60
2018-12-14T21:15:40.220Z,83.50
2018-12-14T21:18:14.932Z,83.60
2018-12-14T21:20:49.462Z,83.60
2018-12-14T21:23:24.197Z,84.00
2018-12-14T21:25:58.459Z,84.30
2018-12-14T21:28:33.111Z,84.10
2018-12-14T21:31:07.623Z,84.10
2018-12-14T21:33:42.077Z,84.10
2018-12-14T21:36:16.541Z,83.80
2018-12-14T21:38:51.246Z,83.80
2018-12-14T21:41:25.991Z,84.10
2018-12-14T21:44:00.656Z,84.20
2018-12-14T21:46:35.225Z,83.50
2018-12-14T21:49:10.878Z,84.00
2018-12-14T21:51:45.533Z,84.20
2018-12-14T21:54:20.122Z,84.60
2018-12-14T21:56:54.468Z,84.30
2018-12-14T21:59:30.244Z,84.30
2018-12-14T22:02:05.252Z,84.60
2018-12-14T22:04:39.704Z,84.40
2018-12-14T22:07:14.418Z,84.20
2018-12-14T22:09:48.836Z,84.10
2018-12-14T22:12:23.596Z,84.20
2018-12-14T22:14:58.361Z,84.10
2018-12-14T22:17:33.407Z,84.10
2018-12-14T22:20:08.242Z,83.90
2018-12-14T22:22:43.059Z,84.20
2018-12-14T22:25:17.794Z,84.00
2018-12-14T22:27:52.500Z,83.80
2018-12-14T22:30:27.369Z,83.90
2018-12-14T22:33:02.089Z,84.50
2018-12-14T22:35:36.899Z,84.50
2018-12-14T22:38:11.597Z,84.80
2018-12-14T22:40:46.373Z,85.50
2018-12-14T22:43:20.788Z,85.90
2018-12-14T22:45:55.157Z,86.10
2018-12-14T22:48:29.497Z,85.80
2018-12-14T22:51:04.101Z,84.70
2018-12-14T22:53:38.690Z,83.60
2018-12-14T22:56:13.076Z,84.20
2018-12-14T22:58:47.607Z,85.20
2018-12-14T23:01:22.010Z,85.60
2018-12-14T23:03:56.431Z,85.60
2018-12-14T23:06:30.717Z,85.10
2018-12-14T23:09:06.899Z,84.40
2018-12-14T23:11:41.329Z,83.80
2018-12-14T23:14:15.963Z,83.50
2018-12-14T23:16:52.442Z,83.50
2018-12-14T23:19:27.418Z,83.10
2018-12-14T23:22:02.266Z,83.30
2018-12-14T23:24:36.936Z,83.60
2018-12-14T23:27:11.298Z,83.10
2018-12-14T23:29:45.768Z,82.90
2018-12-14T23:32:20.064Z,82.60
2018-12-14T23:34:54.288Z,82.10
2018-12-14T23:37:28.795Z,81.70
2018-12-14T23:40:03.361Z,81.20
2018-12-14T23:42:37.780Z,81.50
2018-12-14T23:45:12.284Z,81.90
2018-12-14T23:47:46.640Z,82.50
2018-12-14T23:50:21.073Z,81.80
2018-12-14T23:52:55.410Z,81.90
2018-12-14T23:55:29.803Z,81.40
2018-12-14T23:58:04.304Z,81.70
